Time;durP1;ratioP1;P1;durP2;ratioP2;P2;SDS_P1;SDS_P2;PMS_P1;PMS_P2;Temp;Humidity;BMP_temperature;BMP_pressure;BME280_temperature;BME280_humidity;BME280_pressure;Samples;Min_cycle;Max_cycle;Signal;HPM_P1;HPM_P2
2021/08/31 00:03:31;;;;;;;4.25;4.05;;;;;;;14.60;100.00;99947.34;10460095;28;20041;-69
2021/08/31 00:08:32;;;;;;;4.90;4.60;;;;;;;14.61;100.00;99957.88;10459368;28;20053;-70
2021/08/31 00:13:34;;;;;;;5.80;5.40;;;;;;;14.64;100.00;99964.78;10459787;28;20063;-70
2021/08/31 00:18:39;;;;;;;6.80;6.38;;;;;;;14.53;100.00;99970.63;10461412;28;20098;-71
2021/08/31 00:23:40;;;;;;;8.13;7.38;;;;;;;14.57;100.00;99973.97;10463621;28;20128;-69
2021/08/31 00:28:42;;;;;;;7.60;7.10;;;;;;;14.63;100.00;99977.16;10458457;28;20076;-69
2021/08/31 00:33:44;;;;;;;8.55;7.93;;;;;;;14.39;100.00;99975.69;10459314;28;20117;-69
2021/08/31 00:38:45;;;;;;;8.68;7.97;;;;;;;14.68;100.00;99981.38;10458789;28;20052;-69
2021/08/31 00:43:49;;;;;;;7.38;6.88;;;;;;;14.69;100.00;99981.28;10457459;28;20041;-70
2021/08/31 00:48:51;;;;;;;10.30;9.45;;;;;;;14.53;100.00;99990.94;10458295;28;20053;-69
2021/08/31 00:53:53;;;;;;;10.40;9.70;;;;;;;14.47;100.00;99991.16;10457852;28;20045;-70
2021/08/31 00:58:54;;;;;;;11.70;10.75;;;;;;;14.39;100.00;100002.16;10457666;28;20056;-69
2021/08/31 01:03:56;;;;;;;10.80;9.77;;;;;;;14.45;100.00;99996.53;10457338;28;20091;-70
2021/08/31 01:08:58;;;;;;;10.30;9.40;;;;;;;14.52;100.00;100008.59;10440449;28;20044;-69
2021/08/31 01:13:59;;;;;;;11.68;10.85;;;;;;;14.42;100.00;100009.91;10457107;28;20053;-69
2021/08/31 01:19:01;;;;;;;12.85;11.73;;;;;;;14.47;100.00;100012.31;10456886;28;20049;-70
2021/08/31 01:24:03;;;;;;;12.75;11.82;;;;;;;14.49;100.00;100014.00;10456786;28;20037;-70
2021/08/31 01:29:05;;;;;;;13.95;12.75;;;;;;;14.42;100.00;100020.47;10456954;28;20122;-69
2021/08/31 01:34:06;;;;;;;13.90;12.68;;;;;;;14.32;99.95;100032.44;10438712;28;20041;-69
2021/08/31 01:39:08;;;;;;;14.73;13.73;;;;;;;14.22;100.00;100026.72;10457473;28;20052;-69
2021/08/31 01:44:09;;;;;;;12.98;11.88;;;;;;;14.28;100.00;100025.56;10456711;28;20102;-70
2021/08/31 01:49:11;;;;;;;13.45;12.38;;;;;;;14.28;99.53;100034.38;10456418;28;20049;-69
2021/08/31 01:54:12;;;;;;;14.02;12.88;;;;;;;14.16;99.56;100028.78;10438316;28;20099;-69
2021/08/31 01:59:14;;;;;;;14.65;13.65;;;;;;;14.21;100.00;100032.97;10437910;28;20521;-70
2021/08/31 02:04:16;;;;;;;14.50;13.30;;;;;;;14.17;99.90;100031.38;10438475;28;20095;-70
2021/08/31 02:09:17;;;;;;;13.82;12.65;;;;;;;14.21;98.78;100032.97;10437483;28;20045;-70
2021/08/31 02:14:19;;;;;;;15.20;13.80;;;;;;;14.16;98.53;100044.66;10455666;28;20074;-70
2021/08/31 02:19:20;;;;;;;13.88;12.77;;;;;;;14.20;98.47;100047.06;10437824;28;20068;-70
2021/08/31 02:24:22;;;;;;;15.05;13.75;;;;;;;14.27;97.66;100042.38;10455435;28;20045;-70
2021/08/31 02:29:25;;;;;;;15.18;14.07;;;;;;;14.16;98.29;100044.66;10455209;28;20049;-70
2021/08/31 02:34:26;;;;;;;14.02;13.00;;;;;;;14.22;98.36;100047.03;10455252;28;20041;-70
2021/08/31 02:39:28;;;;;;;15.10;13.80;;;;;;;14.11;98.89;100047.50;10455957;28;20052;-70
2021/08/31 02:44:30;;;;;;;15.43;14.13;;;;;;;14.26;98.49;100048.59;10437694;28;20037;-70
2021/08/31 02:49:32;;;;;;;17.25;15.73;;;;;;;14.08;99.31;100045.88;10438176;28;20041;-69
2021/08/31 02:54:33;;;;;;;18.58;16.08;;;;;;;14.17;99.15;100047.25;10457934;28;20041;-69
2021/08/31 02:59:38;;;;;;;18.48;16.83;;;;;;;14.06;99.45;100046.88;10443088;28;20045;-70
2021/08/31 03:04:44;;;;;;;16.52;15.32;;;;;;;14.18;98.19;100056.03;10441448;28;20487;-69
2021/08/31 03:09:46;;;;;;;17.63;16.15;;;;;;;14.13;97.54;100070.31;10465513;28;20120;-71
2021/08/31 03:14:48;;;;;;;20.38;17.45;;;;;;;14.14;98.10;100068.53;10444505;28;20114;-69
2021/08/31 03:19:49;;;;;;;20.30;17.92;;;;;;;14.10;98.92;100070.44;10462520;28;20098;-69
2021/08/31 03:24:51;;;;;;;17.45;16.15;;;;;;;14.01;98.57;100084.06;10462060;28;20044;-69
2021/08/31 03:29:52;;;;;;;16.10;14.90;;;;;;;14.15;98.79;100080.81;10461484;28;20041;-69
2021/08/31 03:34:54;;;;;;;16.63;15.30;;;;;;;14.14;98.12;100079.94;10426680;28;20382;-69
2021/08/31 03:39:55;;;;;;;17.27;15.88;;;;;;;14.12;98.38;100080.94;10444587;28;20057;-69
2021/08/31 03:44:57;;;;;;;15.27;14.13;;;;;;;14.24;97.70;100085.66;10443232;28;20060;-69
2021/08/31 03:49:59;;;;;;;17.52;15.93;;;;;;;14.01;98.83;100086.72;10442876;28;20425;-69
2021/08/31 03:55:00;;;;;;;16.15;14.80;;;;;;;14.09;98.06;100095.16;10460277;28;20414;-69
2021/08/31 04:00:04;;;;;;;16.73;15.43;;;;;;;13.85;99.66;100096.25;10460268;28;20053;-70
2021/08/31 04:05:07;;;;;;;16.27;14.65;;;;;;;13.98;98.17;100102.72;10460494;28;20451;-70
2021/08/31 04:10:09;;;;;;;16.42;15.23;;;;;;;13.92;98.88;100102.13;10442784;28;20075;-70
2021/08/31 04:15:11;;;;;;;15.68;14.15;;;;;;;14.08;97.80;100098.75;10442698;28;20494;-69
2021/08/31 04:20:13;;;;;;;15.80;14.50;;;;;;;14.00;97.41;100106.16;10458644;28;20094;-69
2021/08/31 04:25:15;;;;;;;16.80;15.50;;;;;;;13.84;99.55;100110.41;10443065;28;20053;-69
2021/08/31 04:30:17;;;;;;;14.98;13.68;;;;;;;13.95;99.11;100120.50;10459758;28;20098;-69
2021/08/31 04:35:18;;;;;;;14.52;13.18;;;;;;;14.10;97.84;100122.44;10459121;28;20045;-69
2021/08/31 04:40:20;;;;;;;15.07;13.85;;;;;;;14.07;97.83;100126.06;10459864;28;20104;-69
2021/08/31 04:45:22;;;;;;;16.83;14.73;;;;;;;13.99;97.51;100130.88;10462124;28;20063;-69
2021/08/31 04:50:24;;;;;;;16.38;14.82;;;;;;;13.89;98.32;100127.75;10458477;28;20060;-69
2021/08/31 04:55:25;;;;;;;15.73;14.35;;;;;;;13.82;99.96;100122.81;10441061;28;20510;-69
2021/08/31 05:00:27;;;;;;;16.05;14.68;;;;;;;13.88;99.52;100122.53;10459128;28;20079;-69
2021/08/31 05:05:29;;;;;;;15.90;14.70;;;;;;;13.80;100.00;100119.38;10459231;28;20099;-69
2021/08/31 05:10:30;;;;;;;16.25;14.88;;;;;;;13.86;99.14;100127.06;10458322;28;20053;-69
2021/08/31 05:15:33;;;;;;;17.08;15.23;;;;;;;13.79;99.36;100128.22;10459110;28;20041;-70
2021/08/31 05:20:35;;;;;;;18.00;16.20;;;;;;;13.73;99.92;100131.16;10458001;28;20040;-68
2021/08/31 05:25:37;;;;;;;16.33;14.90;;;;;;;13.81;99.41;100131.66;10457722;28;20041;-68
2021/08/31 05:30:39;;;;;;;17.23;15.65;;;;;;;13.88;99.71;100138.41;10472142;22;20548;-75
2021/08/31 05:35:41;;;;;;;15.55;14.35;;;;;;;13.90;98.73;100139.22;10461252;28;20045;-75
2021/08/31 05:40:43;;;;;;;16.08;14.77;;;;;;;13.89;98.39;100137.47;10462016;28;20055;-75
2021/08/31 05:45:45;;;;;;;15.70;13.90;;;;;;;13.97;97.01;100139.78;10442776;28;20041;-76
2021/08/31 05:50:47;;;;;;;15.75;14.50;;;;;;;13.85;98.49;100138.53;10441283;28;20127;-76
2021/08/31 05:55:49;;;;;;;15.23;14.02;;;;;;;13.89;98.03;100137.47;10443361;28;20041;-74
2021/08/31 06:00:54;;;;;;;15.45;14.25;;;;;;;13.74;99.36;100143.44;10460305;28;20057;-74
2021/08/31 06:05:56;;;;;;;16.30;15.10;;;;;;;13.85;98.27;100142.03;10426552;28;20171;-74
2021/08/31 06:10:59;;;;;;;15.60;14.15;;;;;;;13.76;98.45;100147.72;10459170;28;20045;-75
2021/08/31 06:16:01;;;;;;;16.23;14.40;;;;;;;13.73;99.27;100145.22;10459052;28;20044;-76
2021/08/31 06:21:03;;;;;;;14.85;13.75;;;;;;;13.95;97.72;100146.94;10424957;28;20045;-76
2021/08/31 06:26:05;;;;;;;15.60;14.40;;;;;;;13.81;98.19;100158.97;10460259;28;20367;-75
2021/08/31 06:31:06;;;;;;;15.63;14.32;;;;;;;13.81;99.00;100158.97;10458307;28;20072;-76
2021/08/31 06:36:08;;;;;;;15.65;14.18;;;;;;;13.77;98.98;100157.38;10458596;28;20037;-76
2021/08/31 06:41:10;;;;;;;17.30;15.77;;;;;;;13.83;98.15;100164.16;10440729;28;20061;-75
2021/08/31 06:46:15;;;;;;;15.02;13.63;;;;;;;13.83;98.23;100167.66;10469125;28;20077;-74
2021/08/31 06:51:17;;;;;;;14.82;13.60;;;;;;;13.89;98.25;100163.91;10450676;28;20043;-75
2021/08/31 06:56:20;;;;;;;15.80;14.60;;;;;;;13.69;99.35;100175.34;10466748;28;20045;-74
2021/08/31 07:01:22;;;;;;;17.33;16.02;;;;;;;13.68;99.91;100181.53;10465837;28;20102;-76
2021/08/31 07:06:24;;;;;;;15.20;13.80;;;;;;;13.87;98.39;100179.81;10466259;28;20095;-76
2021/08/31 07:11:26;;;;;;;16.63;15.30;;;;;;;13.63;99.22;100187.03;10464493;28;20060;-77
2021/08/31 07:16:28;;;;;;;17.85;16.20;;;;;;;13.68;99.92;100193.88;10430244;28;20045;-74
2021/08/31 07:21:30;;;;;;;15.30;14.00;;;;;;;13.76;99.37;100202.34;10463818;28;20048;-74
2021/08/31 07:26:32;;;;;;;15.40;14.20;;;;;;;13.74;99.92;100214.75;10448615;28;20059;-74
2021/08/31 07:31:34;;;;;;;17.45;15.48;;;;;;;13.60;100.00;100218.84;10431803;28;20461;-74
2021/08/31 07:36:36;;;;;;;16.70;15.52;;;;;;;13.66;100.00;100215.06;10466113;28;20044;-75
2021/08/31 07:41:38;;;;;;;15.02;13.93;;;;;;;13.68;100.00;100230.84;10466433;28;20406;-75
2021/08/31 07:46:45;;;;;;;15.20;14.10;;;;;;;13.76;100.00;100232.25;10445097;28;20451;-75
2021/08/31 07:51:48;;;;;;;15.02;13.82;;;;;;;14.00;99.24;100235.66;10430671;28;20045;-74
2021/08/31 07:56:49;;;;;;;14.40;13.10;;;;;;;13.88;99.59;100244.09;10429888;28;20041;-74
2021/08/31 08:01:52;;;;;;;14.77;13.75;;;;;;;13.95;98.65;100248.22;10465502;28;20048;-73
2021/08/31 08:06:53;;;;;;;15.02;13.88;;;;;;;13.86;99.66;100262.66;10407501;28;20045;-74
2021/08/31 08:11:55;;;;;;;14.48;13.27;;;;;;;13.97;96.97;100267.50;10420186;28;20053;-75
2021/08/31 08:16:57;;;;;;;14.90;13.43;;;;;;;13.95;96.60;100266.72;10423951;28;20041;-74
2021/08/31 08:21:58;;;;;;;17.13;15.73;;;;;;;13.86;98.86;100270.59;10442775;28;20049;-74
2021/08/31 08:27:00;;;;;;;16.55;15.25;;;;;;;14.05;97.63;100267.19;10460767;28;20041;-75
2021/08/31 08:32:02;;;;;;;17.02;15.75;;;;;;;13.89;97.80;100275.72;10435013;28;20095;-76
2021/08/31 08:37:06;;;;;;;14.82;13.82;;;;;;;14.00;96.34;100270.03;10459016;28;20103;-75
2021/08/31 08:42:09;;;;;;;13.35;12.30;;;;;;;14.22;93.60;100269.97;10442622;28;20049;-75
2021/08/31 08:47:11;;;;;;;13.98;12.73;;;;;;;14.19;95.42;100269.22;10424632;28;20049;-74
2021/08/31 08:52:13;;;;;;;13.25;12.25;;;;;;;14.39;93.45;100278.03;10401149;28;20517;-76
2021/08/31 08:57:18;;;;;;;14.77;13.40;;;;;;;14.41;94.21;100275.31;10419193;28;20052;-74
2021/08/31 09:02:43;;;;;;;12.93;11.90;;;;;;;14.22;93.80;100277.03;10417710;28;20124;-75
2021/08/31 09:07:44;;;;;;;14.05;12.93;;;;;;;14.08;95.70;100285.56;10418534;28;20518;-75
2021/08/31 09:12:49;;;;;;;13.25;12.30;;;;;;;14.12;96.57;100289.75;10418183;28;20484;-74
2021/08/31 09:23:08;;;;;;;;;;;;;;;14.09;95.65;100285.47;10417662;28;20474;-74
2021/08/31 09:28:20;;;;;;;10.05;9.35;;;;;;;14.21;95.96;100299.09;10399065;28;19921;-75
2021/08/31 09:33:24;;;;;;;9.07;8.25;;;;;;;14.18;96.67;100296.59;10443511;28;20110;-75
2021/08/31 09:38:56;;;;;;;9.38;8.75;;;;;;;13.97;98.42;100295.72;10458534;28;20406;-74
2021/08/31 09:44:01;;;;;;;7.60;7.10;;;;;;;14.25;97.40;100298.03;10417179;28;20041;-75
2021/08/31 09:49:20;;;;;;;7.25;6.75;;;;;;;14.12;98.49;100306.50;10434951;28;20049;-76
2021/08/31 09:54:23;;;;;;;5.65;5.25;;;;;;;14.15;98.55;100308.16;10457856;28;20100;-76
2021/08/31 09:59:25;;;;;;;5.93;5.53;;;;;;;14.18;98.97;100321.25;10440361;28;20049;-75
2021/08/31 10:04:26;;;;;;;5.72;5.35;;;;;;;14.33;99.42;100314.44;10458176;28;20048;-76
2021/08/31 10:09:28;;;;;;;5.32;5.03;;;;;;;14.25;99.20;100320.03;10458470;28;20513;-76
2021/08/31 10:14:29;;;;;;;4.63;4.32;;;;;;;14.47;97.54;100314.69;10441455;28;20429;-76
2021/08/31 10:19:31;;;;;;;5.15;4.85;;;;;;;14.47;96.63;100320.00;10463251;28;20053;-76
2021/08/31 10:24:33;;;;;;;7.00;6.45;;;;;;;14.46;99.93;100318.28;10466340;28;20406;-76
2021/08/31 10:29:35;;;;;;;6.43;5.93;;;;;;;14.56;98.98;100324.06;10465913;28;20514;-76
2021/08/31 10:34:39;;;;;;;6.22;5.82;;;;;;;14.67;98.37;100321.81;10466298;28;20047;-75
2021/08/31 10:39:59;;;;;;;5.82;5.45;;;;;;;14.77;95.99;100324.91;10465914;28;20084;-75
2021/08/31 10:45:05;;;;;;;8.98;8.27;;;;;;;14.60;98.25;100328.28;10467219;28;20041;-75
2021/08/31 10:50:08;;;;;;;10.07;9.18;;;;;;;14.64;96.23;100324.59;10465318;28;20048;-76
2021/08/31 10:55:25;;;;;;;12.35;11.55;;;;;;;14.58;97.69;100328.38;10464920;28;20045;-75
2021/08/31 11:00:28;;;;;;;13.93;12.05;;;;;;;14.70;96.81;100331.38;10465444;28;20041;-76
2021/08/31 11:05:33;;;;;;;13.13;12.13;;;;;;;15.00;96.13;100335.31;10446006;28;20040;-76
2021/08/31 11:10:37;;;;;;;12.88;11.98;;;;;;;14.89;95.54;100335.81;10464486;28;20048;-76
2021/08/31 11:15:40;;;;;;;13.30;12.40;;;;;;;15.13;92.46;100338.28;10463709;28;20103;-75
2021/08/31 11:20:46;;;;;;;15.15;13.88;;;;;;;14.76;94.83;100349.66;10463410;28;20061;-76
2021/08/31 11:25:58;;;;;;;13.65;12.57;;;;;;;14.74;95.36;100359.44;10445021;28;20116;-75
2021/08/31 11:31:06;;;;;;;16.98;15.60;;;;;;;14.59;97.92;100359.19;10445465;23;20038;-69
2021/08/31 11:36:12;;;;;;;14.90;13.75;;;;;;;14.91;96.30;100370.13;10385970;28;20050;-69
2021/08/31 11:41:15;;;;;;;15.35;14.23;;;;;;;14.87;95.91;100374.75;10419700;28;20041;-69
2021/08/31 11:46:26;;;;;;;14.95;13.93;;;;;;;14.95;95.67;100378.81;10402037;28;20383;-69
2021/08/31 11:51:27;;;;;;;15.55;14.20;;;;;;;14.83;94.51;100372.25;10401457;28;20051;-69
2021/08/31 11:56:29;;;;;;;15.52;14.52;;;;;;;14.88;96.09;100370.31;10419694;28;20100;-69
2021/08/31 12:01:32;;;;;;;13.57;12.57;;;;;;;15.20;92.81;100360.91;10418888;28;20545;-70
2021/08/31 12:06:34;;;;;;;13.68;12.63;;;;;;;15.40;91.91;100354.69;10420063;28;20056;-70
2021/08/31 12:11:36;;;;;;;13.57;12.65;;;;;;;15.39;92.91;100369.72;10419602;28;20050;-70
2021/08/31 12:16:38;;;;;;;13.63;12.73;;;;;;;15.42;93.05;100370.53;10418552;28;20037;-69
2021/08/31 12:21:40;;;;;;;11.38;10.50;;;;;;;15.91;88.85;100362.91;10417925;28;20499;-69
2021/08/31 12:26:42;;;;;;;11.07;10.18;;;;;;;16.02;88.47;100365.88;10417819;28;20483;-69
2021/08/31 12:32:05;;;;;;;11.60;10.70;;;;;;;16.03;89.98;100357.88;10417955;28;20047;-70
2021/08/31 12:37:26;;;;;;;11.48;10.57;;;;;;;16.20;88.69;100364.13;10417852;28;20038;-70
2021/08/31 12:42:27;;;;;;;9.73;9.00;;;;;;;16.23;87.80;100359.53;10416602;28;20045;-70
2021/08/31 12:47:29;;;;;;;10.55;9.65;;;;;;;16.17;86.48;100348.38;10418996;28;20049;-70
2021/08/31 12:52:30;;;;;;;11.68;10.77;;;;;;;16.04;90.38;100346.34;10418967;28;20087;-70
2021/08/31 12:57:32;;;;;;;11.07;10.30;;;;;;;16.11;90.34;100349.53;10417568;28;20069;-71
2021/08/31 13:02:36;;;;;;;10.68;9.68;;;;;;;16.31;86.67;100343.25;10417353;28;20053;-71
2021/08/31 13:07:38;;;;;;;10.60;9.90;;;;;;;16.15;88.67;100344.00;10416686;28;20037;-70
2021/08/31 13:12:45;;;;;;;10.85;10.15;;;;;;;15.86;90.11;100355.19;10416699;28;20499;-68
2021/08/31 13:17:46;;;;;;;12.35;11.35;;;;;;;15.61;93.35;100345.72;10416135;28;20479;-68
2021/08/31 13:22:49;;;;;;;12.35;11.55;;;;;;;15.44;95.10;100356.25;10416341;28;20103;-69
2021/08/31 13:27:51;;;;;;;12.40;11.50;;;;;;;15.61;94.82;100350.16;10416407;28;20095;-69
2021/08/31 13:32:52;;;;;;;11.57;10.77;;;;;;;15.67;94.19;100355.22;10415356;28;20049;-69
2021/08/31 13:37:54;;;;;;;11.80;11.07;;;;;;;15.67;94.29;100359.63;10416559;28;20059;-69
2021/08/31 13:42:56;;;;;;;11.23;10.32;;;;;;;15.93;92.48;100353.09;10415222;28;20052;-70
2021/08/31 13:47:57;;;;;;;11.57;10.77;;;;;;;15.85;93.23;100349.03;10416384;28;20053;-70
2021/08/31 13:52:59;;;;;;;10.35;9.60;;;;;;;16.14;91.03;100363.50;10411579;28;20075;-69
2021/08/31 13:58:01;;;;;;;10.88;10.07;;;;;;;16.15;91.08;100361.69;10394956;28;20123;-70
2021/08/31 14:03:02;;;;;;;9.75;9.05;;;;;;;16.21;89.61;100356.09;10396826;28;20104;-70
2021/08/31 14:08:05;;;;;;;10.32;9.63;;;;;;;16.31;91.02;100356.50;10387499;28;20522;-69
2021/08/31 14:13:07;;;;;;;8.85;8.15;;;;;;;16.77;86.80;100355.03;10406024;28;20464;-70
2021/08/31 14:18:09;;;;;;;8.25;7.65;;;;;;;17.10;82.98;100348.88;10375720;28;20199;-70
2021/08/31 14:23:10;;;;;;;7.28;6.80;;;;;;;17.15;82.85;100345.03;10395251;28;20046;-70
2021/08/31 14:28:12;;;;;;;7.78;7.28;;;;;;;17.42;81.16;100339.16;10414920;28;20057;-71
2021/08/31 14:33:14;;;;;;;7.80;7.15;;;;;;;17.31;80.97;100339.75;10414460;28;20507;-70
2021/08/31 14:38:15;;;;;;;7.90;7.22;;;;;;;17.32;79.58;100345.91;10409795;28;20096;-71
2021/08/31 14:43:17;;;;;;;8.02;7.43;;;;;;;17.30;81.89;100340.66;10338532;28;20573;-71
2021/08/31 14:48:19;;;;;;;8.68;8.07;;;;;;;17.54;81.12;100346.44;10374503;28;20112;-71
2021/08/31 14:53:20;;;;;;;7.00;6.47;;;;;;;17.34;78.91;100346.69;10415215;28;20103;-71
2021/08/31 14:58:22;;;;;;;6.55;5.95;;;;;;;17.54;78.35;100348.25;10414230;28;20514;-71
2021/08/31 15:03:23;;;;;;;6.53;6.13;;;;;;;17.57;79.64;100348.06;10415420;28;20041;-71
2021/08/31 15:08:25;;;;;;;7.15;6.65;;;;;;;17.54;80.04;100338.47;10405250;28;20477;-72
2021/08/31 15:13:27;;;;;;;6.30;5.78;;;;;;;17.53;79.33;100336.78;10423928;28;20095;-72
2021/08/31 15:18:33;;;;;;;6.05;5.60;;;;;;;17.67;77.48;100343.97;10407813;28;20457;-73
2021/08/31 15:23:35;;;;;;;5.63;5.20;;;;;;;17.89;75.16;100339.19;10404964;28;20081;-71
2021/08/31 15:28:37;;;;;;;5.80;5.40;;;;;;;18.17;73.10;100339.38;10404758;28;20457;-72
2021/08/31 15:33:39;;;;;;;5.40;5.00;;;;;;;18.23;71.94;100342.53;10422681;28;20103;-72
2021/08/31 15:38:40;;;;;;;5.68;5.25;;;;;;;18.05;73.77;100352.44;10423375;28;20049;-72
2021/08/31 15:43:42;;;;;;;6.00;5.50;;;;;;;17.94;72.94;100362.00;10404017;28;20046;-71
2021/08/31 15:48:49;;;;;;;6.75;6.25;;;;;;;17.53;75.90;100359.81;10422317;28;20099;-71
2021/08/31 15:53:50;;;;;;;5.80;5.43;;;;;;;17.82;73.87;100355.56;10425122;28;20483;-74
2021/08/31 15:58:52;;;;;;;6.60;6.10;;;;;;;17.69;76.47;100359.81;10405311;28;20095;-73
2021/08/31 16:03:55;;;;;;;6.78;6.18;;;;;;;17.64;76.82;100358.28;10420215;28;20095;-72
2021/08/31 16:08:57;;;;;;;6.72;6.32;;;;;;;17.42;78.12;100363.06;10402622;28;20045;-72
2021/08/31 16:13:58;;;;;;;6.45;5.85;;;;;;;17.37;75.95;100373.94;10419291;28;20415;-72
2021/08/31 16:19:00;;;;;;;6.47;5.88;;;;;;;17.39;74.35;100374.72;10419652;28;20041;-71
2021/08/31 16:24:02;;;;;;;5.57;5.18;;;;;;;17.30;72.72;100366.38;10419151;28;20041;-72
2021/08/31 16:29:03;;;;;;;5.63;5.22;;;;;;;17.05;73.08;100382.81;10401504;28;20495;-72
2021/08/31 16:34:05;;;;;;;5.18;4.78;;;;;;;16.88;73.70;100386.34;10418172;28;20103;-72
2021/08/31 16:39:06;;;;;;;4.68;4.35;;;;;;;16.94;69.87;100386.00;10417048;28;20042;-72
2021/08/31 16:44:08;;;;;;;3.78;3.47;;;;;;;16.77;69.90;100388.69;10418180;28;20100;-72
2021/08/31 16:49:09;;;;;;;4.43;4.13;;;;;;;16.76;69.14;100398.44;10418274;28;20050;-72
2021/08/31 16:54:11;;;;;;;5.90;3.28;;;;;;;16.77;66.37;100396.63;10408085;28;20042;-72
2021/08/31 16:59:19;;;;;;;3.88;3.30;;;;;;;16.65;67.08;100406.94;10418599;28;20049;-71
2021/08/31 17:04:21;;;;;;;3.40;3.20;;;;;;;16.57;66.89;100421.53;10398099;28;20038;-71
2021/08/31 17:09:23;;;;;;;4.07;3.67;;;;;;;16.45;68.08;100430.09;10395366;28;20052;-72
2021/08/31 17:14:24;;;;;;;3.63;3.33;;;;;;;16.37;68.16;100431.31;10413620;28;20445;-72
2021/08/31 17:19:26;;;;;;;3.92;3.63;;;;;;;16.40;68.98;100435.63;10382272;28;20046;-73
2021/08/31 17:24:27;;;;;;;6.60;3.90;;;;;;;16.18;69.83;100448.22;10400520;28;20495;-72
2021/08/31 17:29:29;;;;;;;3.90;3.58;;;;;;;16.29;68.90;100453.84;10399126;28;20049;-75
2021/08/31 17:34:31;;;;;;;4.88;4.30;;;;;;;16.18;69.07;100464.13;10377557;23;20049;-75
2021/08/31 17:39:33;;;;;;;5.55;5.07;;;;;;;16.06;69.18;100468.22;10381232;28;20073;-75
2021/08/31 17:44:34;;;;;;;4.93;4.43;;;;;;;15.88;69.93;100470.81;10379160;28;20046;-75
2021/08/31 17:49:36;;;;;;;4.57;4.18;;;;;;;15.74;70.24;100477.69;10380383;28;20060;-75
2021/08/31 17:54:44;;;;;;;4.18;3.88;;;;;;;15.60;70.34;100480.94;10381048;28;20553;-75
2021/08/31 17:59:45;;;;;;;4.43;4.13;;;;;;;15.28;72.31;100492.97;10381151;28;20046;-75
2021/08/31 18:04:47;;;;;;;9.70;4.55;;;;;;;15.38;69.96;100499.59;10361828;28;20100;-75
2021/08/31 18:09:49;;;;;;;4.20;3.90;;;;;;;15.44;68.85;100515.19;10380292;28;20050;-75
2021/08/31 18:14:51;;;;;;;4.15;3.75;;;;;;;15.27;68.89;100521.25;10361424;28;20042;-74
2021/08/31 18:19:52;;;;;;;3.92;3.50;;;;;;;15.19;69.16;100527.81;10377624;28;20107;-75
2021/08/31 18:24:54;;;;;;;4.28;3.70;;;;;;;15.09;70.83;100537.91;10377176;28;20376;-74
2021/08/31 18:29:56;;;;;;;5.20;4.72;;;;;;;14.82;73.00;100534.63;10376537;28;20053;-75
2021/08/31 18:34:58;;;;;;;4.70;4.30;;;;;;;14.93;71.16;100547.44;10376718;28;20041;-74
2021/08/31 18:40:00;;;;;;;6.05;4.03;;;;;;;14.94;70.98;100543.88;10380919;28;20144;-74
2021/08/31 18:45:03;;;;;;;4.95;4.45;;;;;;;15.10;68.75;100548.47;10383888;28;20125;-74
2021/08/31 18:50:05;;;;;;;3.72;3.40;;;;;;;15.18;67.51;100547.25;10384065;28;20050;-74
2021/08/31 18:55:07;;;;;;;3.70;3.40;;;;;;;15.01;68.62;100555.94;10384633;28;20101;-75
2021/08/31 19:00:13;;;;;;;4.30;3.47;;;;;;;14.93;67.67;100550.94;10384204;28;20514;-75
2021/08/31 19:05:18;;;;;;;4.72;3.15;;;;;;;15.04;66.83;100550.50;10384483;28;20125;-75
2021/08/31 19:10:20;;;;;;;3.45;3.15;;;;;;;14.94;66.37;100552.66;10385148;28;20050;-74
2021/08/31 19:15:22;;;;;;;3.13;2.92;;;;;;;14.93;66.56;100556.25;10396861;28;20496;-75
2021/08/31 19:20:25;;;;;;;4.53;3.42;;;;;;;14.94;67.33;100560.59;10419147;28;20038;-75
2021/08/31 19:25:26;;;;;;;4.70;3.78;;;;;;;14.57;69.45;100564.75;10383869;28;20073;-76
2021/08/31 19:30:28;;;;;;;5.65;3.22;;;;;;;14.51;69.69;100567.63;10398983;28;20046;-75
2021/08/31 19:35:31;;;;;;;3.75;3.45;;;;;;;14.63;68.28;100563.63;10405968;28;20180;-75
2021/08/31 19:40:33;;;;;;;3.85;3.47;;;;;;;14.43;70.45;100569.66;10385798;28;20407;-75
2021/08/31 19:45:38;;;;;;;5.35;4.03;;;;;;;14.12;72.03;100580.56;10383953;28;20402;-75
2021/08/31 19:50:48;;;;;;;4.35;3.97;;;;;;;14.06;72.52;100588.72;10382698;28;20052;-75
2021/08/31 19:55:51;;;;;;;4.10;3.70;;;;;;;14.36;69.84;100584.06;10382984;28;20085;-75
2021/08/31 20:00:53;;;;;;;3.65;3.20;;;;;;;14.56;69.09;100586.81;10365746;28;20511;-75
2021/08/31 20:05:55;;;;;;;4.05;3.22;;;;;;;14.51;70.63;100594.06;10365018;28;20046;-75
2021/08/31 20:10:57;;;;;;;3.53;3.22;;;;;;;14.56;69.33;100605.34;10381682;28;20042;-75
2021/08/31 20:15:58;;;;;;;3.70;3.28;;;;;;;14.43;70.95;100617.28;10382128;28;20038;-75
2021/08/31 20:21:00;;;;;;;4.70;3.92;;;;;;;14.34;72.13;100615.88;10364863;28;20495;-74
2021/08/31 20:26:02;;;;;;;3.97;3.67;;;;;;;14.37;71.76;100617.53;10364167;28;20041;-75
2021/08/31 20:31:04;;;;;;;3.97;3.60;;;;;;;14.54;69.74;100631.00;10382331;28;20423;-76
2021/08/31 20:36:05;;;;;;;6.80;3.85;;;;;;;14.22;71.35;100631.34;10363994;28;20044;-74
2021/08/31 20:41:07;;;;;;;4.10;3.70;;;;;;;14.23;71.63;100641.00;10380669;28;20095;-75
2021/08/31 20:46:09;;;;;;;6.30;4.57;;;;;;;14.43;70.39;100642.88;10380554;28;20041;-75
2021/08/31 20:51:11;;;;;;;3.85;3.55;;;;;;;14.24;71.71;100653.28;10362729;28;20069;-75
2021/08/31 20:56:13;;;;;;;4.25;3.95;;;;;;;14.08;71.94;100655.66;10380431;28;20098;-75
2021/08/31 21:01:14;;;;;;;4.32;3.92;;;;;;;14.10;71.86;100667.88;10361935;28;20056;-75
2021/08/31 21:06:17;;;;;;;4.57;4.13;;;;;;;14.02;72.60;100674.34;10380016;28;20443;-75
2021/08/31 21:11:18;;;;;;;3.80;3.50;;;;;;;13.87;73.24;100675.75;10361317;28;20056;-75
2021/08/31 21:16:20;;;;;;;4.38;3.97;;;;;;;13.86;73.06;100681.97;10361828;28;20046;-76
2021/08/31 21:21:22;;;;;;;4.47;3.88;;;;;;;13.83;73.55;100695.28;10379118;28;20049;-75
2021/08/31 21:26:24;;;;;;;5.00;4.53;;;;;;;13.83;73.43;100695.28;10344659;28;20046;-75
2021/08/31 21:31:25;;;;;;;4.60;4.20;;;;;;;13.80;73.42;100701.53;10378553;28;20360;-75
2021/08/31 21:36:27;;;;;;;4.35;4.03;;;;;;;13.83;73.70;100700.56;10377572;28;20109;-76
2021/08/31 21:41:29;;;;;;;5.03;4.00;;;;;;;13.66;73.37;100708.22;10378326;28;20506;-75
2021/08/31 21:46:30;;;;;;;5.00;4.55;;;;;;;13.84;72.90;100712.84;10378016;28;20050;-75
2021/08/31 21:51:32;;;;;;;4.30;3.90;;;;;;;13.64;73.70;100703.00;10377690;28;20046;-75
2021/08/31 21:56:34;;;;;;;4.43;4.03;;;;;;;13.68;73.82;100711.66;10378237;28;20046;-76
2021/08/31 22:01:35;;;;;;;5.03;3.95;;;;;;;13.68;73.71;100717.81;10360449;28;20066;-75
2021/08/31 22:06:37;;;;;;;4.20;3.63;;;;;;;13.84;72.15;100724.28;10377332;28;20412;-74
2021/08/31 22:11:39;;;;;;;4.45;4.03;;;;;;;13.80;72.95;100725.31;10377288;28;20042;-74
2021/08/31 22:16:41;;;;;;;4.93;4.53;;;;;;;13.88;72.35;100719.78;10385729;28;20084;-74
2021/08/31 22:21:43;;;;;;;4.63;4.22;;;;;;;13.93;72.00;100719.59;10367339;28;20045;-74
2021/08/31 22:26:45;;;;;;;6.65;4.38;;;;;;;14.00;71.28;100723.78;10385394;28;20500;-74
2021/08/31 22:31:47;;;;;;;4.88;4.47;;;;;;;13.96;71.78;100730.94;10384856;28;20156;-74
2021/08/31 22:36:48;;;;;;;6.80;4.55;;;;;;;13.62;73.00;100729.44;10383982;28;20542;-74
2021/08/31 22:41:50;;;;;;;7.40;4.20;;;;;;;13.78;72.42;100726.28;10385098;28;20077;-74
2021/08/31 22:46:52;;;;;;;4.63;3.75;;;;;;;13.62;73.12;100732.06;10384644;28;20447;-74
2021/08/31 22:51:53;;;;;;;4.82;4.22;;;;;;;13.61;72.96;100732.13;10384541;28;20156;-73
2021/08/31 22:56:55;;;;;;;4.18;3.88;;;;;;;13.52;73.58;100740.38;10385505;28;20041;-74
2021/08/31 23:01:56;;;;;;;4.53;4.13;;;;;;;13.38;73.88;100740.81;10366468;28;20054;-74